createdAt,value
2022-11-19T00:02:24.179Z,8.63
2022-11-19T00:05:46.642Z,6.40
2022-11-19T00:08:19.575Z,7.72
2022-11-19T00:10:48.212Z,7.70
2022-11-19T00:13:15.864Z,14.38
2022-11-19T00:15:46.386Z,7.32
2022-11-19T00:19:18.823Z,7.80
2022-11-19T00:21:24.921Z,10.57
2022-11-19T00:23:56.891Z,12.05
2022-11-19T00:26:26.352Z,12.70
2022-11-19T00:28:56.014Z,8.55
2022-11-19T00:31:33.811Z,7.25
2022-11-19T00:34:09.608Z,8.32
2022-11-19T00:36:46.661Z,9.85
2022-11-19T00:39:18.942Z,9.13
2022-11-19T00:41:46.675Z,6.70
2022-11-19T00:44:13.873Z,7.00
2022-11-19T00:46:42.566Z,9.23
2022-11-19T00:49:27.252Z,6.05
2022-11-19T00:51:55.442Z,7.90
2022-11-19T00:54:25.093Z,6.40
2022-11-19T00:56:52.341Z,5.28
2022-11-19T00:59:19.776Z,10.23
2022-11-19T01:05:54.189Z,5.30
2022-11-19T01:08:07.626Z,7.63
2022-11-19T01:10:57.494Z,6.20
2022-11-19T01:13:46.555Z,8.77
2022-11-19T01:16:51.251Z,5.85
2022-11-19T01:20:18.648Z,5.72
2022-11-19T01:22:30.531Z,7.35
2022-11-19T01:24:57.840Z,6.18
2022-11-19T01:27:27.532Z,6.50
2022-11-19T01:29:54.741Z,5.32
2022-11-19T01:32:22.020Z,5.15
2022-11-19T01:34:50.159Z,8.05
2022-11-19T01:37:17.367Z,6.07
2022-11-19T01:39:44.726Z,7.78
2022-11-19T01:42:50.990Z,7.07
2022-11-19T01:45:46.109Z,8.00
2022-11-19T01:48:32.239Z,4.60
2022-11-19T01:51:17.841Z,7.05
2022-11-19T01:53:50.733Z,7.25
2022-11-19T01:56:22.972Z,5.68
2022-11-19T01:59:00.178Z,4.00
2022-11-19T02:01:31.976Z,5.75
2022-11-19T02:04:05.136Z,4.45
2022-11-19T02:06:34.405Z,5.75
2022-11-19T02:09:02.094Z,5.47
2022-11-19T02:11:47.744Z,4.53
2022-11-19T02:14:55.430Z,5.60
2022-11-19T02:17:41.998Z,6.65
2022-11-19T02:20:46.099Z,4.95
2022-11-19T02:24:02.731Z,6.60
2022-11-19T02:26:54.356Z,5.40
2022-11-19T02:29:38.061Z,6.30
2022-11-19T02:32:15.291Z,6.03
2022-11-19T02:34:55.141Z,8.82
2022-11-19T02:37:57.144Z,4.53
2022-11-19T02:40:47.092Z,7.65
2022-11-19T02:43:23.921Z,7.57
2022-11-19T02:46:14.524Z,5.82
2022-11-19T02:48:54.031Z,7.50
2022-11-19T02:51:24.480Z,6.68
2022-11-19T02:53:52.973Z,10.30
2022-11-19T02:56:55.307Z,5.55
2022-11-19T03:00:07.810Z,8.50
2022-11-19T03:03:06.124Z,6.18
2022-11-19T03:05:45.634Z,8.35
2022-11-19T03:08:12.993Z,7.13
2022-11-19T03:11:14.664Z,5.57
2022-11-19T03:14:43.183Z,5.20
2022-11-19T03:17:32.291Z,4.03
2022-11-19T03:20:53.061Z,4.50
2022-11-19T03:23:38.306Z,7.32
2022-11-19T03:26:30.499Z,6.28
2022-11-19T03:29:04.611Z,6.70
2022-11-19T03:31:35.206Z,9.55
2022-11-19T03:34:12.522Z,7.30
2022-11-19T03:36:43.676Z,5.70
2022-11-19T03:39:17.966Z,7.30
2022-11-19T03:41:51.143Z,6.57
2022-11-19T03:44:47.263Z,7.05
2022-11-19T03:47:24.839Z,6.50
2022-11-19T03:50:05.432Z,4.15
2022-11-19T03:52:33.794Z,5.00
2022-11-19T03:55:07.071Z,6.20
2022-11-19T03:57:34.650Z,7.95
2022-11-19T04:00:03.078Z,6.00
2022-11-19T04:02:40.878Z,6.30
2022-11-19T04:05:09.392Z,5.40
2022-11-19T04:07:36.877Z,6.90
2022-11-19T04:10:05.165Z,6.85
2022-11-19T04:12:32.430Z,6.30
2022-11-19T04:14:59.986Z,6.60
2022-11-19T04:17:31.913Z,8.07
2022-11-19T04:19:59.509Z,6.35
2022-11-19T04:22:29.376Z,9.23
2022-11-19T04:24:57.273Z,6.53
2022-11-19T04:27:24.797Z,6.00
2022-11-19T04:29:52.367Z,5.90
2022-11-19T04:32:28.317Z,6.38
2022-11-19T04:34:55.517Z,7.03
2022-11-19T04:37:22.618Z,6.90
2022-11-19T04:39:49.791Z,6.55
2022-11-19T04:42:16.892Z,6.15
2022-11-19T04:44:44.015Z,5.40
2022-11-19T04:47:11.172Z,6.18
2022-11-19T04:49:38.344Z,11.57
2022-11-19T04:52:05.668Z,8.20
2022-11-19T04:54:32.849Z,6.63
2022-11-19T04:57:00.121Z,7.30
2022-11-19T04:59:27.249Z,6.57
2022-11-19T05:01:54.464Z,9.63
2022-11-19T05:04:21.639Z,6.90
2022-11-19T05:06:48.825Z,5.38
2022-11-19T05:09:16.190Z,6.13
2022-11-19T05:11:43.324Z,7.32
2022-11-19T05:14:10.504Z,8.02
2022-11-19T05:16:37.662Z,8.30
2022-11-19T05:19:05.129Z,5.47
2022-11-19T05:21:32.307Z,5.78
2022-11-19T05:23:59.421Z,6.85
2022-11-19T05:26:26.556Z,7.32
2022-11-19T05:28:53.761Z,7.15
2022-11-19T05:31:21.066Z,9.60
2022-11-19T05:33:48.221Z,6.15
2022-11-19T05:36:15.555Z,7.60
2022-11-19T05:38:42.674Z,6.78
2022-11-19T05:41:10.272Z,6.30
2022-11-19T05:43:37.782Z,7.05
2022-11-19T05:46:05.199Z,6.88
2022-11-19T05:48:32.806Z,7.70
2022-11-19T05:51:00.300Z,6.15
2022-11-19T05:53:27.505Z,6.47
2022-11-19T05:55:55.304Z,7.32
2022-11-19T05:58:22.845Z,7.63
2022-11-19T06:00:56.079Z,6.07
2022-11-19T06:03:23.204Z,7.07
2022-11-19T06:05:50.875Z,7.50
2022-11-19T06:08:18.636Z,7.15
2022-11-19T06:10:46.262Z,6.53
2022-11-19T06:13:13.814Z,6.15
2022-11-19T06:15:41.010Z,6.25
2022-11-19T06:18:08.272Z,7.55
2022-11-19T06:20:36.346Z,5.45
2022-11-19T06:23:03.877Z,6.78
2022-11-19T06:25:31.387Z,7.78
2022-11-19T06:27:58.994Z,7.50
2022-11-19T06:30:26.178Z,7.45
2022-11-19T06:32:53.340Z,7.32
2022-11-19T06:35:20.524Z,5.65
2022-11-19T06:37:47.911Z,5.95
2022-11-19T06:40:15.384Z,5.88
2022-11-19T06:42:46.120Z,5.18
2022-11-19T06:45:16.084Z,6.68
2022-11-19T06:47:49.115Z,7.28
2022-11-19T06:50:16.703Z,6.45
2022-11-19T06:52:43.986Z,6.90
2022-11-19T06:55:11.743Z,6.80
2022-11-19T06:57:39.438Z,5.05
2022-11-19T07:00:07.963Z,5.38
2022-11-19T07:02:35.185Z,5.47
2022-11-19T07:05:02.413Z,6.97
2022-11-19T07:07:29.792Z,6.75
2022-11-19T07:09:57.428Z,7.75
2022-11-19T07:12:24.911Z,6.75
2022-11-19T07:14:52.216Z,7.15
2022-11-19T07:17:19.369Z,7.25
2022-11-19T07:19:46.924Z,7.20
2022-11-19T07:22:14.512Z,6.18
2022-11-19T07:24:41.737Z,6.30
2022-11-19T07:27:08.871Z,5.13
2022-11-19T07:29:36.261Z,5.97
2022-11-19T07:32:03.468Z,8.40
2022-11-19T07:34:30.706Z,12.95
2022-11-19T07:36:58.345Z,5.30
2022-11-19T07:39:25.855Z,5.68
2022-11-19T07:42:12.175Z,8.48
2022-11-19T07:44:41.541Z,8.73
2022-11-19T07:47:09.943Z,5.70
2022-11-19T07:49:37.364Z,4.75
2022-11-19T07:52:05.033Z,4.20
2022-11-19T07:54:32.306Z,5.43
2022-11-19T07:56:59.958Z,5.05
2022-11-19T07:59:27.327Z,4.20
2022-11-19T08:01:54.784Z,5.43
2022-11-19T08:04:21.988Z,5.13
2022-11-19T08:06:49.373Z,5.68
2022-11-19T08:09:17.392Z,4.40
2022-11-19T08:11:45.153Z,4.03
2022-11-19T08:14:13.698Z,4.85
2022-11-19T08:17:00.174Z,4.25
2022-11-19T08:19:27.816Z,4.22
2022-11-19T08:21:55.234Z,3.25
2022-11-19T08:24:23.313Z,3.30
2022-11-19T08:26:51.371Z,4.70
2022-11-19T08:29:23.898Z,9.90
2022-11-19T08:31:53.333Z,5.32
2022-11-19T08:34:22.321Z,6.25
2022-11-19T08:36:50.264Z,6.55
2022-11-19T08:39:17.785Z,5.38
2022-11-19T08:42:04.167Z,4.93
2022-11-19T08:44:31.779Z,9.30
2022-11-19T08:46:59.393Z,10.88
2022-11-19T08:49:26.828Z,4.22
2022-11-19T08:51:54.156Z,4.88
2022-11-19T08:54:21.881Z,4.85
2022-11-19T08:56:49.773Z,5.40
2022-11-19T08:59:17.699Z,6.78
2022-11-19T09:01:45.071Z,5.13
2022-11-19T09:04:12.208Z,6.28
2022-11-19T09:06:39.354Z,5.60
2022-11-19T09:09:07.102Z,4.72
2022-11-19T09:11:42.260Z,5.30
2022-11-19T09:14:10.766Z,5.15
2022-11-19T09:16:38.009Z,6.85
2022-11-19T09:19:05.671Z,3.58
2022-11-19T09:21:33.033Z,4.10
2022-11-19T09:24:00.410Z,4.18
2022-11-19T09:26:52.472Z,4.22
2022-11-19T09:29:20.714Z,3.70
2022-11-19T09:31:48.212Z,4.63
2022-11-19T09:34:15.485Z,4.75
2022-11-19T09:36:43.163Z,3.80
2022-11-19T09:39:11.186Z,4.68
2022-11-19T09:42:16.483Z,6.88
2022-11-19T09:45:16.968Z,4.88
2022-11-19T09:48:07.936Z,4.03
2022-11-19T09:50:53.625Z,1.92
2022-11-19T09:53:24.008Z,2.58
2022-11-19T09:55:54.322Z,3.13
2022-11-19T09:58:42.586Z,3.20
2022-11-19T10:01:18.640Z,3.28
2022-11-19T10:03:54.579Z,3.80
2022-11-19T10:06:51.938Z,2.65
2022-11-19T10:09:39.213Z,3.35
2022-11-19T10:12:51.781Z,4.10
2022-11-19T10:15:42.138Z,4.60
2022-11-19T10:18:25.137Z,5.20
2022-11-19T10:21:19.113Z,5.00
2022-11-19T10:24:18.880Z,4.38
2022-11-19T10:27:07.212Z,3.85
2022-11-19T10:29:40.384Z,3.45
2022-11-19T10:32:39.670Z,3.10
2022-11-19T10:35:24.224Z,4.65
2022-11-19T10:38:03.165Z,3.95
2022-11-19T10:41:03.818Z,4.00
2022-11-19T10:43:46.354Z,3.22
2022-11-19T10:46:24.581Z,5.45
2022-11-19T10:48:59.479Z,5.40
2022-11-19T10:51:57.505Z,4.82
2022-11-19T10:54:28.979Z,4.55
2022-11-19T10:57:00.517Z,5.28
2022-11-19T10:59:34.253Z,4.03
2022-11-19T11:02:26.633Z,3.42
2022-11-19T11:05:15.663Z,5.13
2022-11-19T11:07:56.310Z,3.85
2022-11-19T11:10:37.461Z,4.55
2022-11-19T11:13:58.387Z,4.43
2022-11-19T11:16:47.786Z,4.05
2022-11-19T11:19:23.151Z,4.75
2022-11-19T11:21:57.806Z,3.20
2022-11-19T11:24:37.883Z,3.17
2022-11-19T11:27:35.720Z,3.78
2022-11-19T11:30:16.316Z,3.22
2022-11-19T11:32:44.418Z,3.80
2022-11-19T11:35:37.855Z,3.55
2022-11-19T11:38:06.180Z,4.43
2022-11-19T11:40:33.690Z,3.70
2022-11-19T11:43:01.271Z,4.57
2022-11-19T11:45:35.483Z,3.25
2022-11-19T11:48:18.171Z,3.97
2022-11-19T11:50:47.014Z,4.30
2022-11-19T11:53:29.020Z,3.03
2022-11-19T11:56:03.728Z,4.13
2022-11-19T11:58:36.147Z,4.45
2022-11-19T12:01:20.537Z,5.93
2022-11-19T12:04:01.693Z,3.60
2022-11-19T12:07:23.238Z,5.75
2022-11-19T12:10:25.717Z,2.97
2022-11-19T12:13:15.797Z,3.50
2022-11-19T12:16:01.149Z,5.25
2022-11-19T12:19:37.288Z,5.20
2022-11-19T12:23:01.518Z,6.35
2022-11-19T12:25:56.969Z,4.60
2022-11-19T12:28:57.158Z,4.00
2022-11-19T12:31:55.681Z,6.35
2022-11-19T12:35:21.063Z,5.38
2022-11-19T12:38:06.196Z,6.47
2022-11-19T12:41:11.431Z,6.53
2022-11-19T12:44:02.381Z,10.35
2022-11-19T12:47:17.278Z,18.10
2022-11-19T12:50:11.294Z,8.65
2022-11-19T12:53:03.304Z,7.38
2022-11-19T12:56:38.872Z,4.63
2022-11-19T13:00:40.788Z,3.83
2022-11-19T13:03:38.885Z,6.03
2022-11-19T13:06:26.383Z,4.22
2022-11-19T13:09:38.911Z,5.05
2022-11-19T13:12:24.947Z,4.32
2022-11-19T13:15:01.157Z,5.22
2022-11-19T13:17:47.773Z,4.28
2022-11-19T13:20:41.362Z,3.60
2022-11-19T13:23:53.876Z,6.75
2022-11-19T13:26:34.589Z,6.35
2022-11-19T13:29:39.943Z,5.13
2022-11-19T13:32:42.032Z,5.47
2022-11-19T13:35:55.849Z,4.55
2022-11-19T13:39:17.802Z,4.82
2022-11-19T13:42:14.968Z,4.65
2022-11-19T13:44:44.428Z,5.10
2022-11-19T13:49:16.540Z,5.05
2022-11-19T13:51:12.995Z,5.18
2022-11-19T13:53:49.608Z,7.03
2022-11-19T13:56:18.136Z,4.75
2022-11-19T13:58:55.244Z,5.60
2022-11-19T14:02:14.397Z,5.10
2022-11-19T14:05:44.210Z,5.07
2022-11-19T14:08:41.662Z,6.28
2022-11-19T14:11:46.472Z,8.75
2022-11-19T14:15:02.826Z,5.95
2022-11-19T14:18:24.717Z,6.18
2022-11-19T14:21:11.399Z,9.90
2022-11-19T14:24:08.500Z,6.05
2022-11-19T14:27:35.728Z,5.03
2022-11-19T14:31:12.108Z,4.63
2022-11-19T14:34:01.697Z,6.18
2022-11-19T14:36:53.987Z,4.88
2022-11-19T14:39:33.851Z,5.18
2022-11-19T14:42:37.507Z,6.07
2022-11-19T14:45:28.138Z,5.32
2022-11-19T14:48:10.736Z,7.35
2022-11-19T14:50:41.618Z,6.25
2022-11-19T14:53:30.857Z,4.38
2022-11-19T14:56:12.274Z,4.78
2022-11-19T14:59:11.095Z,7.40
2022-11-19T15:02:12.698Z,7.40
2022-11-19T15:05:11.669Z,6.13
2022-11-19T15:08:03.103Z,5.97
2022-11-19T15:11:14.149Z,7.55
2022-11-19T15:13:50.086Z,5.93
2022-11-19T15:16:28.231Z,7.20
2022-11-19T15:20:25.485Z,8.02
2022-11-19T15:23:36.084Z,9.35
2022-11-19T15:26:52.684Z,9.27
2022-11-19T15:30:37.821Z,9.05
2022-11-19T15:33:34.438Z,8.73
2022-11-19T15:36:42.918Z,7.25
2022-11-19T15:39:56.051Z,8.02
2022-11-19T15:43:06.830Z,8.63
2022-11-19T15:46:10.174Z,5.70
2022-11-19T15:49:20.690Z,5.32
2022-11-19T15:52:32.274Z,5.35
2022-11-19T15:55:29.135Z,6.18
2022-11-19T15:58:52.991Z,8.30
2022-11-19T16:02:32.776Z,8.68
2022-11-19T16:05:40.451Z,6.72
2022-11-19T16:08:17.258Z,7.25
2022-11-19T16:11:19.936Z,6.60
2022-11-19T16:14:19.061Z,8.70
2022-11-19T16:17:11.518Z,10.40
2022-11-19T16:19:40.657Z,11.15
2022-11-19T16:22:10.364Z,9.20
2022-11-19T16:24:56.738Z,7.32
2022-11-19T16:27:39.954Z,7.00
2022-11-19T16:31:22.958Z,7.35
2022-11-19T16:33:51.454Z,8.70
2022-11-19T16:39:58.021Z,10.27
2022-11-19T16:42:29.221Z,12.20
2022-11-19T16:45:24.506Z,8.63
2022-11-19T16:48:01.666Z,8.80
2022-11-19T16:50:42.264Z,8.93
2022-11-19T16:53:12.622Z,8.68
2022-11-19T16:58:34.596Z,9.70
2022-11-19T17:01:02.022Z,8.25
2022-11-19T17:03:36.336Z,9.85
2022-11-19T17:06:05.926Z,9.20
2022-11-19T17:08:38.107Z,15.90
2022-11-19T17:12:09.463Z,9.50
2022-11-19T17:14:39.191Z,10.93
2022-11-19T17:17:40.345Z,13.65
2022-11-19T17:20:27.041Z,13.73
2022-11-19T17:22:55.608Z,11.00
2022-11-19T17:25:24.320Z,8.68
2022-11-19T17:27:56.911Z,10.60
2022-11-19T17:30:31.490Z,9.45
2022-11-19T17:33:04.519Z,10.30
2022-11-19T17:35:42.250Z,10.77
2022-11-19T17:38:29.859Z,10.95
2022-11-19T17:41:11.353Z,9.07
2022-11-19T17:44:00.844Z,12.27
2022-11-19T17:46:37.683Z,11.60
2022-11-19T17:49:20.407Z,10.75
2022-11-19T17:51:52.674Z,11.07
2022-11-19T17:54:25.486Z,9.77
2022-11-19T17:57:00.385Z,10.07
2022-11-19T17:59:30.714Z,10.68
2022-11-19T18:02:26.978Z,13.30
2022-11-19T18:05:11.263Z,10.52
2022-11-19T18:08:04.525Z,10.02
2022-11-19T18:11:03.682Z,10.77
2022-11-19T18:13:51.734Z,11.45
2022-11-19T18:16:28.614Z,12.65
2022-11-19T18:19:02.359Z,13.77
2022-11-19T18:21:46.427Z,10.02
2022-11-19T18:24:23.467Z,12.82
2022-11-19T18:26:58.560Z,16.02
2022-11-19T18:29:31.916Z,13.43
2022-11-19T18:32:13.672Z,14.40
2022-11-19T18:34:47.779Z,12.85
2022-11-19T18:37:15.481Z,11.23
2022-11-19T18:40:05.977Z,12.95
2022-11-19T18:42:36.332Z,13.23
2022-11-19T18:45:12.168Z,12.90
2022-11-19T18:47:41.614Z,13.32
2022-11-19T18:50:30.128Z,12.57
2022-11-19T18:53:01.377Z,11.65
2022-11-19T18:55:31.790Z,12.80
2022-11-19T18:58:01.863Z,13.02
2022-11-19T19:00:29.174Z,14.73
2022-11-19T19:03:20.590Z,12.32
2022-11-19T19:05:47.781Z,14.98
2022-11-19T19:08:49.475Z,13.85
2022-11-19T19:12:18.246Z,21.95
2022-11-19T19:15:10.200Z,20.75
2022-11-19T19:17:43.816Z,17.70
2022-11-19T19:20:16.844Z,16.70
2022-11-19T19:23:14.900Z,16.95
2022-11-19T19:25:45.740Z,19.85
2022-11-19T19:28:15.653Z,21.85
2022-11-19T19:30:43.096Z,14.10
2022-11-19T19:33:10.442Z,16.58
2022-11-19T19:35:40.876Z,16.00
2022-11-19T19:38:08.009Z,19.38
2022-11-19T19:40:39.721Z,17.15
2022-11-19T19:43:23.182Z,17.42
2022-11-19T19:45:50.408Z,12.85
2022-11-19T19:48:17.658Z,12.98
2022-11-19T19:50:51.337Z,13.98
2022-11-19T19:53:18.515Z,12.90
2022-11-19T19:55:51.595Z,13.30
2022-11-19T19:58:19.656Z,13.77
2022-11-19T20:00:51.736Z,11.68
2022-11-19T20:03:19.960Z,14.85
2022-11-19T20:05:50.620Z,12.32
2022-11-19T20:08:18.299Z,14.82
2022-11-19T20:10:45.808Z,12.65
2022-11-19T20:13:28.566Z,12.57
2022-11-19T20:15:59.131Z,12.77
2022-11-19T20:18:27.012Z,10.82
2022-11-19T20:21:02.900Z,14.93
2022-11-19T20:23:30.635Z,14.75
2022-11-19T20:26:07.735Z,13.07
2022-11-19T20:28:35.113Z,11.65
2022-11-19T20:31:14.051Z,27.27
2022-11-19T20:33:48.647Z,14.30
2022-11-19T20:36:16.752Z,13.70
2022-11-19T20:38:46.152Z,14.55
2022-11-19T20:41:36.568Z,14.23
2022-11-19T20:44:22.138Z,12.82
2022-11-19T20:47:03.375Z,12.45
2022-11-19T20:49:34.030Z,12.98
2022-11-19T20:52:04.315Z,13.90
2022-11-19T20:54:33.347Z,11.70
2022-11-19T20:57:01.352Z,13.02
2022-11-19T20:59:29.500Z,14.10
2022-11-19T21:02:02.104Z,12.57
2022-11-19T21:04:37.168Z,11.15
2022-11-19T21:07:05.993Z,13.63
2022-11-19T21:09:40.114Z,13.85
2022-11-19T21:12:07.736Z,12.77
2022-11-19T21:14:35.465Z,13.02
2022-11-19T21:17:02.652Z,12.75
2022-11-19T21:19:30.292Z,14.35
2022-11-19T21:21:58.469Z,13.82
2022-11-19T21:24:28.846Z,15.23
2022-11-19T21:26:58.919Z,14.25
2022-11-19T21:29:28.858Z,17.35
2022-11-19T21:31:56.243Z,23.10
2022-11-19T21:34:25.096Z,22.77
2022-11-19T21:36:52.701Z,30.27
2022-11-19T21:39:20.423Z,35.92
2022-11-19T21:41:49.310Z,16.70
2022-11-19T21:44:21.859Z,20.90
2022-11-19T21:46:49.538Z,17.40
2022-11-19T21:49:19.934Z,21.63
2022-11-19T21:51:47.888Z,18.13
2022-11-19T21:54:15.206Z,17.58
2022-11-19T21:56:45.441Z,18.17
2022-11-19T21:59:13.737Z,17.55
2022-11-19T22:01:41.213Z,16.58
2022-11-19T22:04:08.448Z,14.90
2022-11-19T22:06:35.592Z,14.82
2022-11-19T22:09:03.515Z,17.63
2022-11-19T22:11:32.209Z,19.13
2022-11-19T22:14:09.019Z,15.82
2022-11-19T22:16:39.817Z,17.27
2022-11-19T22:19:08.043Z,16.58
2022-11-19T22:21:36.317Z,18.30
2022-11-19T22:24:04.499Z,18.27
2022-11-19T22:26:32.324Z,17.05
2022-11-19T22:28:59.519Z,18.10
2022-11-19T22:31:26.900Z,17.83
2022-11-19T22:33:54.950Z,18.25
2022-11-19T22:36:23.872Z,18.85
2022-11-19T22:38:52.462Z,17.15
2022-11-19T22:41:22.091Z,14.43
2022-11-19T22:43:50.336Z,14.52
2022-11-19T22:46:39.315Z,14.52
2022-11-19T22:49:14.320Z,13.45
2022-11-19T22:51:45.630Z,15.10
2022-11-19T22:54:16.558Z,13.93
2022-11-19T22:56:47.984Z,13.27
2022-11-19T22:59:16.000Z,14.20
2022-11-19T23:01:43.880Z,15.13
2022-11-19T23:04:15.510Z,12.10
2022-11-19T23:06:43.475Z,14.93
2022-11-19T23:09:42.545Z,12.80
2022-11-19T23:12:54.321Z,12.20
2022-11-19T23:15:31.548Z,12.93
2022-11-19T23:18:01.038Z,14.45
2022-11-19T23:20:31.716Z,17.63
2022-11-19T23:22:59.313Z,16.30
2022-11-19T23:25:27.900Z,13.80
2022-11-19T23:27:55.904Z,11.98
2022-11-19T23:30:23.607Z,10.35
2022-11-19T23:32:54.016Z,12.57
2022-11-19T23:35:25.290Z,11.02
2022-11-19T23:37:53.169Z,11.93
2022-11-19T23:41:07.604Z,11.52
2022-11-19T23:43:09.650Z,11.50
2022-11-19T23:45:38.044Z,10.77
2022-11-19T23:48:13.876Z,10.70
2022-11-19T23:50:42.092Z,12.18
2022-11-19T23:53:12.984Z,12.73
2022-11-19T23:55:54.032Z,13.18
2022-11-19T23:58:23.191Z,13.18
